Reagan, Texas
Current Conditions -  °F | °C
As of 5:55 PM on Friday 28 Nov 2014 (Local Time) from KT35 Reporting Station
Clear Clear  
Wind Chill: 65°   Ceiling: Unl
Heat Index: 65°   Visibility: 10mi
Dew Point: 49°   Wind: 7mph
Humidity: 56%   Direction: 180°S
Pressure: 30.1"   Gusts: NA
Location:  31.22°N, 96.79°W
Report Text: KT35 282355Z AUTO 18006KT 10SM CLR 18/09 A3010 RMK AO2 T01810092 10227 20181
Loading
Personal Weather Stations






























Interactive Weather Map New forecast layout! Learn more

10-Day Weather Forecast

Advertisements
Track Severe Weather on mobile